createdAt,value
2023-01-27T00:00:15.096Z,-0.14
2023-01-27T00:05:55.645Z,-0.07
2023-01-27T00:11:34.741Z,-0.13
2023-01-27T00:16:55.437Z,-0.44
2023-01-27T00:22:34.539Z,-0.64
2023-01-27T00:27:55.438Z,-0.71
2023-01-27T00:33:25.371Z,-0.85
2023-01-27T00:38:46.054Z,-0.85
2023-01-27T00:44:13.542Z,-0.87
2023-01-27T00:49:35.280Z,-0.70
2023-01-27T00:54:55.853Z,-0.53
2023-01-27T01:00:17.217Z,-0.50
2023-01-27T01:05:38.207Z,-0.39
2023-01-27T01:10:59.250Z,-0.31
2023-01-27T01:16:22.912Z,-0.35
2023-01-27T01:21:43.561Z,-0.36
2023-01-27T01:27:04.482Z,-0.44
2023-01-27T01:32:25.220Z,-0.51
2023-01-27T01:37:46.017Z,-0.48
2023-01-27T01:43:13.350Z,-0.52
2023-01-27T01:48:56.090Z,-0.50
2023-01-27T01:54:25.975Z,-0.47
2023-01-27T01:59:58.464Z,-0.39
2023-01-27T02:05:29.707Z,-0.34
2023-01-27T02:10:50.907Z,-0.34
2023-01-27T02:16:12.182Z,-0.57
2023-01-27T02:21:33.238Z,-0.55
2023-01-27T02:26:53.876Z,-0.66
2023-01-27T02:32:25.681Z,-0.75
2023-01-27T02:37:51.263Z,-0.62
2023-01-27T02:43:12.520Z,-0.64
2023-01-27T02:48:33.203Z,-0.71
2023-01-27T02:53:53.972Z,-0.83
2023-01-27T02:59:16.159Z,-0.88
2023-01-27T03:04:38.907Z,-0.92
2023-01-27T03:10:00.142Z,-0.91
2023-01-27T03:15:42.218Z,-0.84
2023-01-27T03:21:06.747Z,-0.71
2023-01-27T03:26:27.783Z,-0.73
2023-01-27T03:31:52.142Z,-0.77
2023-01-27T03:37:32.670Z,-0.82
2023-01-27T03:43:12.406Z,-0.95
2023-01-27T03:48:33.687Z,-1.08
2023-01-27T03:53:54.639Z,-1.28
2023-01-27T03:59:15.306Z,-1.31
2023-01-27T04:04:54.713Z,-1.25
2023-01-27T04:10:16.084Z,-1.21
2023-01-27T04:15:38.380Z,-1.19
2023-01-27T04:20:59.491Z,-1.21
2023-01-27T04:26:20.780Z,-1.24
2023-01-27T04:31:42.620Z,-1.25
2023-01-27T04:37:05.497Z,-1.10
2023-01-27T04:42:26.205Z,-1.13
2023-01-27T04:47:46.948Z,-1.20
2023-01-27T04:53:07.544Z,-1.25
2023-01-27T04:58:28.236Z,-1.14
2023-01-27T05:03:49.039Z,-1.10
2023-01-27T05:09:09.868Z,-1.14
2023-01-27T05:14:30.527Z,-1.24
2023-01-27T05:19:51.287Z,-1.21
2023-01-27T05:25:12.527Z,-1.21
2023-01-27T05:30:33.947Z,-1.14
2023-01-27T05:35:54.656Z,-1.03
2023-01-27T05:41:17.483Z,-1.08
2023-01-27T05:46:40.454Z,-1.11
2023-01-27T05:52:01.134Z,-1.05
2023-01-27T05:57:21.885Z,-1.02
2023-01-27T06:02:42.524Z,-1.08
2023-01-27T06:08:03.548Z,-1.18
2023-01-27T06:13:25.098Z,-1.17
2023-01-27T06:18:47.242Z,-1.16
2023-01-27T06:24:08.217Z,-1.10
2023-01-27T06:29:29.098Z,-1.06
2023-01-27T06:34:49.800Z,-1.11
2023-01-27T06:40:11.696Z,-1.14
2023-01-27T06:45:32.667Z,-1.09
2023-01-27T06:50:54.704Z,-1.19
2023-01-27T06:56:17.481Z,-1.12
2023-01-27T07:01:38.303Z,-1.09
2023-01-27T07:06:58.859Z,-1.20
2023-01-27T07:12:19.723Z,-1.23
2023-01-27T07:17:40.790Z,-1.20
2023-01-27T07:23:04.706Z,-1.10
2023-01-27T07:28:25.679Z,-1.10
2023-01-27T07:33:46.583Z,-1.14
2023-01-27T07:39:07.421Z,-1.11
2023-01-27T07:44:28.905Z,-1.18
2023-01-27T07:49:50.337Z,-1.12
2023-01-27T07:55:11.406Z,-1.11
2023-01-27T08:00:32.886Z,-1.02
2023-01-27T08:05:53.737Z,-0.95
2023-01-27T08:11:15.675Z,-0.96
2023-01-27T08:16:36.750Z,-0.98
2023-01-27T08:21:57.822Z,-0.96
2023-01-27T08:27:18.514Z,-0.99
2023-01-27T08:32:39.326Z,-1.10
2023-01-27T08:38:00.211Z,-1.19
2023-01-27T08:43:21.051Z,-1.31
2023-01-27T08:48:42.572Z,-1.31
2023-01-27T08:54:04.219Z,-1.31
2023-01-27T08:59:25.318Z,-1.22
2023-01-27T09:04:46.403Z,-1.25
2023-01-27T09:10:14.481Z,-1.27
2023-01-27T09:15:37.659Z,-1.15
2023-01-27T09:20:58.530Z,-1.14
2023-01-27T09:26:19.382Z,-1.05
2023-01-27T09:31:40.234Z,-0.99
2023-01-27T09:37:07.852Z,-0.96
2023-01-27T09:42:50.960Z,-1.00
2023-01-27T09:48:14.677Z,-1.07
2023-01-27T09:53:47.845Z,-1.07
2023-01-27T09:59:42.262Z,-1.03
2023-01-27T10:05:47.620Z,-1.01
2023-01-27T10:11:26.871Z,-1.06
2023-01-27T10:17:05.658Z,-1.04
2023-01-27T10:23:01.097Z,-1.01
2023-01-27T10:28:24.496Z,-0.89
2023-01-27T10:33:48.367Z,-0.84
2023-01-27T10:39:23.189Z,-0.85
2023-01-27T10:45:15.853Z,-0.89
2023-01-27T10:51:13.931Z,-0.90
2023-01-27T10:56:57.088Z,-0.76
2023-01-27T11:02:30.146Z,-0.69
2023-01-27T11:07:59.389Z,-0.69
2023-01-27T11:13:19.978Z,-0.71
2023-01-27T11:18:46.578Z,-0.61
2023-01-27T11:24:24.811Z,-0.57
2023-01-27T11:30:01.257Z,-0.56
2023-01-27T11:35:22.887Z,-0.51
2023-01-27T11:40:45.759Z,-0.57
2023-01-27T11:46:11.117Z,-0.61
2023-01-27T11:51:40.124Z,-0.66
2023-01-27T11:57:02.913Z,-0.05
2023-01-27T12:02:35.531Z,0.53
2023-01-27T12:08:00.184Z,0.14
2023-01-27T12:13:25.813Z,-0.16
2023-01-27T12:19:02.813Z,-0.32
2023-01-27T12:24:38.822Z,-0.31
2023-01-27T12:30:07.637Z,-0.22
2023-01-27T12:35:36.734Z,-0.34
2023-01-27T12:41:01.928Z,-0.29
2023-01-27T12:46:28.271Z,-0.22
2023-01-27T12:51:55.082Z,-0.27
2023-01-27T12:57:19.975Z,-0.27
2023-01-27T13:02:40.915Z,-0.44
2023-01-27T13:08:02.098Z,-0.58
2023-01-27T13:13:28.916Z,-0.68
2023-01-27T13:19:16.778Z,-0.73
2023-01-27T13:24:42.597Z,-0.59
2023-01-27T13:30:29.046Z,-0.67
2023-01-27T13:36:25.180Z,-0.57
2023-01-27T13:41:53.160Z,-0.52
2023-01-27T13:47:23.847Z,-0.51
2023-01-27T13:52:50.228Z,-0.58
2023-01-27T13:58:14.946Z,-0.66
2023-01-27T14:04:05.823Z,-0.57
2023-01-27T14:09:32.759Z,-0.55
2023-01-27T14:15:24.308Z,0.04
2023-01-27T14:20:59.946Z,1.18
2023-01-27T14:26:33.094Z,0.68
2023-01-27T14:32:01.515Z,0.23
2023-01-27T14:37:28.386Z,-0.05
2023-01-27T14:43:12.123Z,-0.27
2023-01-27T14:48:45.748Z,-0.43
2023-01-27T14:54:25.333Z,-0.48
2023-01-27T14:59:46.419Z,-0.44
2023-01-27T15:05:19.361Z,-0.42
2023-01-27T15:11:01.031Z,1.28
2023-01-27T15:16:37.359Z,1.12
2023-01-27T15:22:31.169Z,0.70
2023-01-27T15:27:53.726Z,0.34
2023-01-27T15:33:54.859Z,0.01
2023-01-27T15:39:20.274Z,-0.14
2023-01-27T15:45:00.002Z,-0.22
2023-01-27T15:50:26.129Z,-0.20
2023-01-27T15:55:53.526Z,-0.29
2023-01-27T16:01:26.696Z,-0.40
2023-01-27T16:07:01.982Z,-0.41
2023-01-27T16:12:37.210Z,-0.52
2023-01-27T16:18:07.020Z,-0.53
2023-01-27T16:23:48.899Z,-0.69
2023-01-27T16:29:12.597Z,-0.60
2023-01-27T16:34:44.577Z,-0.59
2023-01-27T16:40:14.958Z,-0.69
2023-01-27T16:45:43.559Z,0.72
2023-01-27T16:51:26.505Z,0.50
2023-01-27T16:56:51.522Z,0.17
2023-01-27T17:02:32.263Z,-0.14
2023-01-27T17:08:03.096Z,-0.20
2023-01-27T17:13:48.520Z,-0.27
2023-01-27T17:19:16.751Z,-0.31
2023-01-27T17:24:59.721Z,-0.26
2023-01-27T17:30:26.872Z,-0.12
2023-01-27T17:35:56.628Z,-0.11
2023-01-27T17:41:27.310Z,-0.21
2023-01-27T17:46:48.291Z,-0.15
2023-01-27T17:52:11.418Z,-0.23
2023-01-27T17:57:34.244Z,-0.24
2023-01-27T18:03:04.317Z,-0.28
2023-01-27T18:08:25.199Z,-0.34
2023-01-27T18:13:46.509Z,-0.32
2023-01-27T18:19:23.305Z,-0.28
2023-01-27T18:24:54.147Z,-0.32
2023-01-27T18:30:19.117Z,-0.37
2023-01-27T18:35:42.141Z,-0.42
2023-01-27T18:41:10.926Z,-0.39
2023-01-27T18:46:32.149Z,-0.36
2023-01-27T18:51:52.844Z,-0.36
2023-01-27T18:57:13.764Z,-0.33
2023-01-27T19:02:34.788Z,-0.41
2023-01-27T19:07:56.976Z,-0.31
2023-01-27T19:13:18.608Z,-0.31
2023-01-27T19:18:40.926Z,-0.29
2023-01-27T19:24:02.150Z,-0.34
2023-01-27T19:29:22.882Z,-0.28
2023-01-27T19:34:44.894Z,-0.26
2023-01-27T19:40:17.289Z,-0.17
2023-01-27T19:45:38.266Z,-0.20
2023-01-27T19:50:58.975Z,-0.27
2023-01-27T19:56:22.737Z,-0.23
2023-01-27T20:01:44.133Z,-0.23
2023-01-27T20:07:06.016Z,-0.18
2023-01-27T20:12:26.906Z,-0.28
2023-01-27T20:17:47.952Z,-0.37
2023-01-27T20:23:09.668Z,-0.50
2023-01-27T20:28:30.389Z,-0.55
2023-01-27T20:33:51.823Z,-0.66
2023-01-27T20:39:12.905Z,-0.68
2023-01-27T20:44:33.779Z,-0.71
2023-01-27T20:49:54.512Z,-0.62
2023-01-27T20:55:17.320Z,-0.50
2023-01-27T21:00:39.633Z,-0.49
2023-01-27T21:06:04.797Z,-0.40
2023-01-27T21:11:25.880Z,-0.50
2023-01-27T21:16:46.682Z,-0.52
2023-01-27T21:22:07.344Z,-0.51
2023-01-27T21:27:28.125Z,-0.38
2023-01-27T21:32:48.943Z,-0.31
2023-01-27T21:38:09.941Z,-0.23
2023-01-27T21:43:49.062Z,-0.31
2023-01-27T21:49:09.729Z,-0.34
2023-01-27T21:54:30.375Z,-0.21
2023-01-27T21:59:51.247Z,-0.28
2023-01-27T22:05:13.320Z,-0.38
2023-01-27T22:10:34.693Z,-0.25
2023-01-27T22:15:55.496Z,-0.28
2023-01-27T22:21:16.187Z,-0.23
2023-01-27T22:26:37.154Z,-0.16
2023-01-27T22:31:58.092Z,-0.02
2023-01-27T22:37:18.796Z,-0.06
2023-01-27T22:42:42.124Z,-0.06
2023-01-27T22:48:03.097Z,-0.17
2023-01-27T22:53:23.889Z,-0.22
2023-01-27T22:58:44.560Z,-0.34
2023-01-27T23:04:05.445Z,-0.26
2023-01-27T23:09:26.302Z,-0.28
2023-01-27T23:14:47.167Z,-0.29
2023-01-27T23:20:08.676Z,-0.33
2023-01-27T23:25:29.419Z,-0.25
2023-01-27T23:30:51.195Z,-0.17
2023-01-27T23:36:13.036Z,-0.20
2023-01-27T23:41:33.830Z,-0.26
2023-01-27T23:46:54.685Z,-0.23
2023-01-27T23:52:15.777Z,-0.18
2023-01-27T23:57:36.692Z,-0.27
